sensor_id;sensor_type;location;lat;lon;timestamp;temperature;humidity
6788;DHT22;3431;47.966;10.268;2023-06-10T00:00:17;16.10;99.90
6788;DHT22;3431;47.966;10.268;2023-06-10T00:00:39;16.10;99.90
6788;DHT22;3431;47.966;10.268;2023-06-10T00:01:02;16.00;99.90
6788;DHT22;3431;47.966;10.268;2023-06-10T00:01:24;16.10;99.90
6788;DHT22;3431;47.966;10.268;2023-06-10T00:01:46;16.00;99.90
6788;DHT22;3431;47.966;10.268;2023-06-10T00:02:09;16.10;99.90
6788;DHT22;3431;47.966;10.268;2023-06-10T00:02:30;16.00;99.90
6788;DHT22;3431;47.966;10.268;2023-06-10T00:02:52;16.00;99.90
6788;DHT22;3431;47.966;10.268;2023-06-10T00:03:14;16.00;99.90
6788;DHT22;3431;47.966;10.268;2023-06-10T00:03:36;15.70;99.90
6788;DHT22;3431;47.966;10.268;2023-06-10T00:03:58;16.00;99.90
6788;DHT22;3431;47.966;10.268;2023-06-10T00:04:20;16.00;99.90
6788;DHT22;3431;47.966;10.268;2023-06-10T00:04:42;16.00;99.90
6788;DHT22;3431;47.966;10.268;2023-06-10T00:05:05;16.00;99.90
6788;DHT22;3431;47.966;10.268;2023-06-10T00:05:26;16.00;99.90
6788;DHT22;3431;47.966;10.268;2023-06-10T00:05:51;16.00;99.90
6788;DHT22;3431;47.966;10.268;2023-06-10T00:06:12;16.00;99.90
6788;DHT22;3431;47.966;10.268;2023-06-10T00:06:34;16.00;99.90
6788;DHT22;3431;47.966;10.268;2023-06-10T00:06:57;16.00;99.90
6788;DHT22;3431;47.966;10.268;2023-06-10T00:07:19;16.00;99.90
6788;DHT22;3431;47.966;10.268;2023-06-10T00:07:40;16.00;99.90
6788;DHT22;3431;47.966;10.268;2023-06-10T00:08:02;16.00;99.90
6788;DHT22;3431;47.966;10.268;2023-06-10T00:08:28;16.00;99.90
6788;DHT22;3431;47.966;10.268;2023-06-10T00:08:52;16.00;99.90
6788;DHT22;3431;47.966;10.268;2023-06-10T00:09:15;16.00;99.90
6788;DHT22;3431;47.966;10.268;2023-06-10T00:09:37;16.00;99.90
6788;DHT22;3431;47.966;10.268;2023-06-10T00:10:01;16.00;99.90
6788;DHT22;3431;47.966;10.268;2023-06-10T00:10:26;16.00;99.90
6788;DHT22;3431;47.966;10.268;2023-06-10T00:10:48;16.00;99.90
6788;DHT22;3431;47.966;10.268;2023-06-10T00:11:09;16.00;99.90
6788;DHT22;3431;47.966;10.268;2023-06-10T00:11:31;16.00;99.90
6788;DHT22;3431;47.966;10.268;2023-06-10T00:11:54;16.00;99.90
6788;DHT22;3431;47.966;10.268;2023-06-10T00:12:16;16.00;99.90
6788;DHT22;3431;47.966;10.268;2023-06-10T00:12:38;16.00;99.90
6788;DHT22;3431;47.966;10.268;2023-06-10T00:12:59;16.10;99.90
6788;DHT22;3431;47.966;10.268;2023-06-10T00:13:22;16.10;99.90
6788;DHT22;3431;47.966;10.268;2023-06-10T00:13:43;16.00;99.90
6788;DHT22;3431;47.966;10.268;2023-06-10T00:14:05;16.10;99.90
6788;DHT22;3431;47.966;10.268;2023-06-10T00:14:27;16.10;99.90
6788;DHT22;3431;47.966;10.268;2023-06-10T00:14:49;16.00;99.90
6788;DHT22;3431;47.966;10.268;2023-06-10T00:15:13;16.10;99.90
6788;DHT22;3431;47.966;10.268;2023-06-10T00:15:34;16.00;99.90
6788;DHT22;3431;47.966;10.268;2023-06-10T00:15:56;16.10;99.90
6788;DHT22;3431;47.966;10.268;2023-06-10T00:16:18;16.00;99.90
6788;DHT22;3431;47.966;10.268;2023-06-10T00:16:40;16.00;99.90
6788;DHT22;3431;47.966;10.268;2023-06-10T00:17:02;16.00;99.90
6788;DHT22;3431;47.966;10.268;2023-06-10T00:17:23;16.00;99.90
6788;DHT22;3431;47.966;10.268;2023-06-10T00:17:46;16.00;99.90
6788;DHT22;3431;47.966;10.268;2023-06-10T00:18:08;16.00;99.90
6788;DHT22;3431;47.966;10.268;2023-06-10T00:18:31;16.00;99.90
6788;DHT22;3431;47.966;10.268;2023-06-10T00:18:52;16.00;99.90
6788;DHT22;3431;47.966;10.268;2023-06-10T00:19:16;16.00;99.90
6788;DHT22;3431;47.966;10.268;2023-06-10T00:19:40;16.00;99.90
6788;DHT22;3431;47.966;10.268;2023-06-10T00:20:02;16.00;99.90
6788;DHT22;3431;47.966;10.268;2023-06-10T00:20:30;16.00;99.90
6788;DHT22;3431;47.966;10.268;2023-06-10T00:20:52;16.00;99.90
6788;DHT22;3431;47.966;10.268;2023-06-10T00:21:16;16.00;99.90
6788;DHT22;3431;47.966;10.268;2023-06-10T00:21:39;16.00;99.90
6788;DHT22;3431;47.966;10.268;2023-06-10T00:22:01;16.00;99.90
6788;DHT22;3431;47.966;10.268;2023-06-10T00:22:24;16.00;99.90
6788;DHT22;3431;47.966;10.268;2023-06-10T00:22:51;16.00;99.90
6788;DHT22;3431;47.966;10.268;2023-06-10T00:23:13;16.00;99.90
6788;DHT22;3431;47.966;10.268;2023-06-10T00:23:35;15.90;99.90
6788;DHT22;3431;47.966;10.268;2023-06-10T00:23:58;15.90;99.90
6788;DHT22;3431;47.966;10.268;2023-06-10T00:24:24;15.90;99.90
6788;DHT22;3431;47.966;10.268;2023-06-10T00:24:46;15.90;99.90
6788;DHT22;3431;47.966;10.268;2023-06-10T00:25:10;15.90;99.90
6788;DHT22;3431;47.966;10.268;2023-06-10T00:25:31;15.90;99.90
6788;DHT22;3431;47.966;10.268;2023-06-10T00:25:54;15.90;99.90
6788;DHT22;3431;47.966;10.268;2023-06-10T00:26:17;15.90;99.90
6788;DHT22;3431;47.966;10.268;2023-06-10T00:26:40;15.90;99.90
6788;DHT22;3431;47.966;10.268;2023-06-10T00:27:02;15.90;99.90
6788;DHT22;3431;47.966;10.268;2023-06-10T00:27:24;15.90;99.90
6788;DHT22;3431;47.966;10.268;2023-06-10T00:27:52;15.90;99.90
6788;DHT22;3431;47.966;10.268;2023-06-10T00:28:13;15.90;99.90
6788;DHT22;3431;47.966;10.268;2023-06-10T00:28:35;15.90;99.90
6788;DHT22;3431;47.966;10.268;2023-06-10T00:28:57;15.90;99.90
6788;DHT22;3431;47.966;10.268;2023-06-10T00:29:19;15.90;99.90
6788;DHT22;3431;47.966;10.268;2023-06-10T00:29:41;15.90;99.90
6788;DHT22;3431;47.966;10.268;2023-06-10T00:30:03;15.80;99.90
6788;DHT22;3431;47.966;10.268;2023-06-10T00:30:26;15.80;99.90
6788;DHT22;3431;47.966;10.268;2023-06-10T00:30:49;15.80;99.90
6788;DHT22;3431;47.966;10.268;2023-06-10T00:31:11;15.80;99.90
6788;DHT22;3431;47.966;10.268;2023-06-10T00:31:34;15.80;99.90
6788;DHT22;3431;47.966;10.268;2023-06-10T00:31:55;15.80;99.90
6788;DHT22;3431;47.966;10.268;2023-06-10T00:32:19;15.80;99.90
6788;DHT22;3431;47.966;10.268;2023-06-10T00:32:41;15.80;99.90
6788;DHT22;3431;47.966;10.268;2023-06-10T00:33:02;15.80;99.90
6788;DHT22;3431;47.966;10.268;2023-06-10T00:33:24;15.80;99.90
6788;DHT22;3431;47.966;10.268;2023-06-10T00:33:45;15.80;99.90
6788;DHT22;3431;47.966;10.268;2023-06-10T00:34:08;15.80;99.90
6788;DHT22;3431;47.966;10.268;2023-06-10T00:34:29;15.80;99.90
6788;DHT22;3431;47.966;10.268;2023-06-10T00:34:53;15.80;99.90
6788;DHT22;3431;47.966;10.268;2023-06-10T00:35:14;15.80;99.90
6788;DHT22;3431;47.966;10.268;2023-06-10T00:35:37;15.70;99.90
6788;DHT22;3431;47.966;10.268;2023-06-10T00:35:58;15.70;99.90
6788;DHT22;3431;47.966;10.268;2023-06-10T00:36:20;15.70;99.90
6788;DHT22;3431;47.966;10.268;2023-06-10T00:36:42;15.70;99.90
6788;DHT22;3431;47.966;10.268;2023-06-10T00:37:05;15.70;99.90
6788;DHT22;3431;47.966;10.268;2023-06-10T00:37:27;15.70;99.90
6788;DHT22;3431;47.966;10.268;2023-06-10T00:37:50;15.80;99.90
6788;DHT22;3431;47.966;10.268;2023-06-10T00:38:13;15.70;99.90
6788;DHT22;3431;47.966;10.268;2023-06-10T00:38:35;15.70;99.90
6788;DHT22;3431;47.966;10.268;2023-06-10T00:38:57;15.70;99.90
6788;DHT22;3431;47.966;10.268;2023-06-10T00:39:20;15.70;99.90
6788;DHT22;3431;47.966;10.268;2023-06-10T00:39:41;15.70;99.90
6788;DHT22;3431;47.966;10.268;2023-06-10T00:40:04;15.70;99.90
6788;DHT22;3431;47.966;10.268;2023-06-10T00:40:28;15.70;99.90
6788;DHT22;3431;47.966;10.268;2023-06-10T00:40:50;15.70;99.90
6788;DHT22;3431;47.966;10.268;2023-06-10T00:41:13;15.70;99.90
6788;DHT22;3431;47.966;10.268;2023-06-10T00:41:34;15.70;99.90
6788;DHT22;3431;47.966;10.268;2023-06-10T00:41:57;15.70;99.90
6788;DHT22;3431;47.966;10.268;2023-06-10T00:42:18;15.70;99.90
6788;DHT22;3431;47.966;10.268;2023-06-10T00:42:40;15.70;99.90
6788;DHT22;3431;47.966;10.268;2023-06-10T00:43:02;15.70;99.90
6788;DHT22;3431;47.966;10.268;2023-06-10T00:43:23;15.70;99.90
6788;DHT22;3431;47.966;10.268;2023-06-10T00:43:46;15.70;99.90
6788;DHT22;3431;47.966;10.268;2023-06-10T00:44:09;15.70;99.90
6788;DHT22;3431;47.966;10.268;2023-06-10T00:44:31;15.70;99.90
6788;DHT22;3431;47.966;10.268;2023-06-10T00:44:54;15.70;99.90
6788;DHT22;3431;47.966;10.268;2023-06-10T00:45:16;15.70;99.90
6788;DHT22;3431;47.966;10.268;2023-06-10T00:45:38;15.70;99.90
6788;DHT22;3431;47.966;10.268;2023-06-10T00:46:00;15.70;99.90
6788;DHT22;3431;47.966;10.268;2023-06-10T00:46:23;15.70;99.90
6788;DHT22;3431;47.966;10.268;2023-06-10T00:46:45;15.70;99.90
6788;DHT22;3431;47.966;10.268;2023-06-10T00:47:08;15.70;99.90
6788;DHT22;3431;47.966;10.268;2023-06-10T00:47:30;15.70;99.90
6788;DHT22;3431;47.966;10.268;2023-06-10T00:47:52;15.70;99.90
6788;DHT22;3431;47.966;10.268;2023-06-10T00:48:14;15.70;99.90
6788;DHT22;3431;47.966;10.268;2023-06-10T00:48:36;15.70;99.90
6788;DHT22;3431;47.966;10.268;2023-06-10T00:48:58;15.70;99.90
6788;DHT22;3431;47.966;10.268;2023-06-10T00:49:20;15.70;99.90
6788;DHT22;3431;47.966;10.268;2023-06-10T00:49:41;15.60;99.90
6788;DHT22;3431;47.966;10.268;2023-06-10T00:50:04;15.60;99.90
6788;DHT22;3431;47.966;10.268;2023-06-10T00:50:27;15.60;99.90
6788;DHT22;3431;47.966;10.268;2023-06-10T00:50:49;15.60;99.90
6788;DHT22;3431;47.966;10.268;2023-06-10T00:51:11;15.60;99.90
6788;DHT22;3431;47.966;10.268;2023-06-10T00:51:33;15.60;99.90
6788;DHT22;3431;47.966;10.268;2023-06-10T00:51:57;15.60;99.90
6788;DHT22;3431;47.966;10.268;2023-06-10T00:52:19;15.60;99.90
6788;DHT22;3431;47.966;10.268;2023-06-10T00:52:43;15.50;99.90
6788;DHT22;3431;47.966;10.268;2023-06-10T00:53:06;15.50;99.90
6788;DHT22;3431;47.966;10.268;2023-06-10T00:53:29;15.50;99.90
6788;DHT22;3431;47.966;10.268;2023-06-10T00:53:51;15.50;99.90
6788;DHT22;3431;47.966;10.268;2023-06-10T00:54:15;15.50;99.90
6788;DHT22;3431;47.966;10.268;2023-06-10T00:54:37;15.50;99.90
6788;DHT22;3431;47.966;10.268;2023-06-10T00:55:00;15.50;99.90
6788;DHT22;3431;47.966;10.268;2023-06-10T00:55:23;15.50;99.90
6788;DHT22;3431;47.966;10.268;2023-06-10T00:55:47;15.50;99.90
6788;DHT22;3431;47.966;10.268;2023-06-10T00:56:09;15.50;99.90
6788;DHT22;3431;47.966;10.268;2023-06-10T00:56:31;15.50;99.90
6788;DHT22;3431;47.966;10.268;2023-06-10T00:56:57;15.40;99.90
6788;DHT22;3431;47.966;10.268;2023-06-10T00:57:19;15.40;99.90
6788;DHT22;3431;47.966;10.268;2023-06-10T00:57:41;15.40;99.90
6788;DHT22;3431;47.966;10.268;2023-06-10T00:58:05;15.40;99.90
6788;DHT22;3431;47.966;10.268;2023-06-10T00:58:28;15.40;99.90
6788;DHT22;3431;47.966;10.268;2023-06-10T00:58:51;15.40;99.90
6788;DHT22;3431;47.966;10.268;2023-06-10T00:59:12;15.40;99.90
6788;DHT22;3431;47.966;10.268;2023-06-10T00:59:35;15.40;99.90
6788;DHT22;3431;47.966;10.268;2023-06-10T00:59:57;15.40;99.90
6788;DHT22;3431;47.966;10.268;2023-06-10T01:00:19;15.40;99.90
6788;DHT22;3431;47.966;10.268;2023-06-10T01:00:41;15.40;99.90
6788;DHT22;3431;47.966;10.268;2023-06-10T01:01:03;15.40;99.90
6788;DHT22;3431;47.966;10.268;2023-06-10T01:01:25;15.40;99.90
6788;DHT22;3431;47.966;10.268;2023-06-10T01:01:48;15.30;99.90
6788;DHT22;3431;47.966;10.268;2023-06-10T01:02:13;15.30;99.90
6788;DHT22;3431;47.966;10.268;2023-06-10T01:02:35;15.30;99.90
6788;DHT22;3431;47.966;10.268;2023-06-10T01:02:57;15.30;99.90
6788;DHT22;3431;47.966;10.268;2023-06-10T01:03:18;15.30;99.90
6788;DHT22;3431;47.966;10.268;2023-06-10T01:03:42;15.20;99.90
6788;DHT22;3431;47.966;10.268;2023-06-10T01:04:04;15.20;99.90
6788;DHT22;3431;47.966;10.268;2023-06-10T01:04:25;15.20;99.90
6788;DHT22;3431;47.966;10.268;2023-06-10T01:04:47;15.20;99.90
6788;DHT22;3431;47.966;10.268;2023-06-10T01:05:10;15.20;99.90
6788;DHT22;3431;47.966;10.268;2023-06-10T01:05:33;15.20;99.90
6788;DHT22;3431;47.966;10.268;2023-06-10T01:06:00;15.20;99.90
6788;DHT22;3431;47.966;10.268;2023-06-10T01:06:30;15.20;99.90
6788;DHT22;3431;47.966;10.268;2023-06-10T01:07:00;15.20;99.90
6788;DHT22;3431;47.966;10.268;2023-06-10T01:07:30;15.20;99.90
6788;DHT22;3431;47.966;10.268;2023-06-10T01:08:00;15.10;99.90
6788;DHT22;3431;47.966;10.268;2023-06-10T01:08:31;15.20;99.90
6788;DHT22;3431;47.966;10.268;2023-06-10T01:08:57;15.10;99.90
6788;DHT22;3431;47.966;10.268;2023-06-10T01:09:24;15.10;99.90
6788;DHT22;3431;47.966;10.268;2023-06-10T01:09:54;15.10;99.90
6788;DHT22;3431;47.966;10.268;2023-06-10T01:10:22;15.10;99.90
6788;DHT22;3431;47.966;10.268;2023-06-10T01:10:51;15.10;99.90
6788;DHT22;3431;47.966;10.268;2023-06-10T01:11:20;15.10;99.90
6788;DHT22;3431;47.966;10.268;2023-06-10T01:11:47;15.00;99.90
6788;DHT22;3431;47.966;10.268;2023-06-10T01:12:17;15.00;99.90
6788;DHT22;3431;47.966;10.268;2023-06-10T01:12:44;15.00;99.90
6788;DHT22;3431;47.966;10.268;2023-06-10T01:13:10;15.00;99.90
6788;DHT22;3431;47.966;10.268;2023-06-10T01:13:36;15.00;99.90
6788;DHT22;3431;47.966;10.268;2023-06-10T01:13:59;15.00;99.90
6788;DHT22;3431;47.966;10.268;2023-06-10T01:14:22;15.00;99.90
6788;DHT22;3431;47.966;10.268;2023-06-10T01:14:45;15.00;99.90
6788;DHT22;3431;47.966;10.268;2023-06-10T01:15:08;15.00;99.90
6788;DHT22;3431;47.966;10.268;2023-06-10T01:15:31;14.90;99.90
6788;DHT22;3431;47.966;10.268;2023-06-10T01:15:53;15.00;99.90
6788;DHT22;3431;47.966;10.268;2023-06-10T01:16:16;15.00;99.90
6788;DHT22;3431;47.966;10.268;2023-06-10T01:16:38;15.00;99.90
6788;DHT22;3431;47.966;10.268;2023-06-10T01:17:02;14.90;99.90
6788;DHT22;3431;47.966;10.268;2023-06-10T01:17:24;15.00;99.90
6788;DHT22;3431;47.966;10.268;2023-06-10T01:17:55;14.90;99.90
6788;DHT22;3431;47.966;10.268;2023-06-10T01:18:17;14.90;99.90
6788;DHT22;3431;47.966;10.268;2023-06-10T01:18:40;14.90;99.90
6788;DHT22;3431;47.966;10.268;2023-06-10T01:19:03;14.90;99.90
6788;DHT22;3431;47.966;10.268;2023-06-10T01:19:26;14.90;99.90
6788;DHT22;3431;47.966;10.268;2023-06-10T01:19:54;14.90;99.90
6788;DHT22;3431;47.966;10.268;2023-06-10T01:20:17;14.90;99.90
6788;DHT22;3431;47.966;10.268;2023-06-10T01:20:38;14.90;99.90
6788;DHT22;3431;47.966;10.268;2023-06-10T01:21:01;14.90;99.90
6788;DHT22;3431;47.966;10.268;2023-06-10T01:21:24;14.90;99.90
6788;DHT22;3431;47.966;10.268;2023-06-10T01:21:46;14.90;99.90
6788;DHT22;3431;47.966;10.268;2023-06-10T01:22:10;14.90;99.90
6788;DHT22;3431;47.966;10.268;2023-06-10T01:22:31;14.80;99.90
6788;DHT22;3431;47.966;10.268;2023-06-10T01:22:58;14.90;99.90
6788;DHT22;3431;47.966;10.268;2023-06-10T01:23:19;14.90;99.90
6788;DHT22;3431;47.966;10.268;2023-06-10T01:23:41;14.80;99.90
6788;DHT22;3431;47.966;10.268;2023-06-10T01:24:03;14.80;99.90
6788;DHT22;3431;47.966;10.268;2023-06-10T01:24:29;14.80;99.90
6788;DHT22;3431;47.966;10.268;2023-06-10T01:24:55;14.80;99.90
6788;DHT22;3431;47.966;10.268;2023-06-10T01:25:20;14.80;99.90
6788;DHT22;3431;47.966;10.268;2023-06-10T01:25:52;14.80;99.90
6788;DHT22;3431;47.966;10.268;2023-06-10T01:26:18;14.80;99.90
6788;DHT22;3431;47.966;10.268;2023-06-10T01:26:42;14.80;99.90
6788;DHT22;3431;47.966;10.268;2023-06-10T01:27:09;14.70;99.90
6788;DHT22;3431;47.966;10.268;2023-06-10T01:27:37;14.70;99.90
6788;DHT22;3431;47.966;10.268;2023-06-10T01:28:04;14.70;99.90
6788;DHT22;3431;47.966;10.268;2023-06-10T01:28:32;14.70;99.90
6788;DHT22;3431;47.966;10.268;2023-06-10T01:28:59;14.70;99.90
6788;DHT22;3431;47.966;10.268;2023-06-10T01:29:28;14.70;99.90
6788;DHT22;3431;47.966;10.268;2023-06-10T01:29:59;14.70;99.90
6788;DHT22;3431;47.966;10.268;2023-06-10T01:30:28;14.70;99.90
6788;DHT22;3431;47.966;10.268;2023-06-10T01:31:00;14.70;99.90
6788;DHT22;3431;47.966;10.268;2023-06-10T01:31:41;14.70;99.90
6788;DHT22;3431;47.966;10.268;2023-06-10T01:32:07;14.70;99.90
6788;DHT22;3431;47.966;10.268;2023-06-10T01:32:34;14.70;99.90
6788;DHT22;3431;47.966;10.268;2023-06-10T01:32:59;14.70;99.90
6788;DHT22;3431;47.966;10.268;2023-06-10T01:33:27;14.60;99.90
6788;DHT22;3431;47.966;10.268;2023-06-10T01:33:52;14.60;99.90
6788;DHT22;3431;47.966;10.268;2023-06-10T01:34:16;14.60;99.90
6788;DHT22;3431;47.966;10.268;2023-06-10T01:34:39;14.60;99.90
6788;DHT22;3431;47.966;10.268;2023-06-10T01:35:05;14.60;99.90
6788;DHT22;3431;47.966;10.268;2023-06-10T01:35:33;14.60;99.90
6788;DHT22;3431;47.966;10.268;2023-06-10T01:35:56;14.60;99.90
6788;DHT22;3431;47.966;10.268;2023-06-10T01:36:20;14.60;99.90
6788;DHT22;3431;47.966;10.268;2023-06-10T01:36:46;14.50;99.90
6788;DHT22;3431;47.966;10.268;2023-06-10T01:37:13;14.50;99.90
6788;DHT22;3431;47.966;10.268;2023-06-10T01:37:36;14.50;99.90
6788;DHT22;3431;47.966;10.268;2023-06-10T01:38:00;14.50;99.90
6788;DHT22;3431;47.966;10.268;2023-06-10T01:38:24;14.40;99.90
6788;DHT22;3431;47.966;10.268;2023-06-10T01:38:47;14.40;99.90
6788;DHT22;3431;47.966;10.268;2023-06-10T01:39:11;14.40;99.90
6788;DHT22;3431;47.966;10.268;2023-06-10T01:39:33;14.40;99.90
6788;DHT22;3431;47.966;10.268;2023-06-10T01:39:57;14.40;99.90
6788;DHT22;3431;47.966;10.268;2023-06-10T01:40:19;14.40;99.90
6788;DHT22;3431;47.966;10.268;2023-06-10T01:40:42;14.40;99.90
6788;DHT22;3431;47.966;10.268;2023-06-10T01:41:06;14.40;99.90
6788;DHT22;3431;47.966;10.268;2023-06-10T01:41:28;14.40;99.90
6788;DHT22;3431;47.966;10.268;2023-06-10T01:41:51;14.40;99.90
6788;DHT22;3431;47.966;10.268;2023-06-10T01:42:14;14.40;99.90
6788;DHT22;3431;47.966;10.268;2023-06-10T01:42:37;14.40;99.90
6788;DHT22;3431;47.966;10.268;2023-06-10T01:42:58;14.40;99.90
6788;DHT22;3431;47.966;10.268;2023-06-10T01:43:20;14.40;99.90
6788;DHT22;3431;47.966;10.268;2023-06-10T01:43:43;14.40;99.90
6788;DHT22;3431;47.966;10.268;2023-06-10T01:44:04;14.40;99.90
6788;DHT22;3431;47.966;10.268;2023-06-10T01:44:27;14.40;99.90
6788;DHT22;3431;47.966;10.268;2023-06-10T01:44:48;14.40;99.90
6788;DHT22;3431;47.966;10.268;2023-06-10T01:45:10;14.40;99.90
6788;DHT22;3431;47.966;10.268;2023-06-10T01:45:32;14.30;99.90
6788;DHT22;3431;47.966;10.268;2023-06-10T01:45:54;14.30;99.90
6788;DHT22;3431;47.966;10.268;2023-06-10T01:46:16;14.30;99.90
6788;DHT22;3431;47.966;10.268;2023-06-10T01:46:41;14.30;99.90
6788;DHT22;3431;47.966;10.268;2023-06-10T01:47:03;14.30;99.90
6788;DHT22;3431;47.966;10.268;2023-06-10T01:47:26;14.30;99.90
6788;DHT22;3431;47.966;10.268;2023-06-10T01:47:47;14.30;99.90
6788;DHT22;3431;47.966;10.268;2023-06-10T01:48:09;14.30;99.90
6788;DHT22;3431;47.966;10.268;2023-06-10T01:48:31;14.30;99.90
6788;DHT22;3431;47.966;10.268;2023-06-10T01:48:53;14.30;99.90
6788;DHT22;3431;47.966;10.268;2023-06-10T01:49:15;14.30;99.90
6788;DHT22;3431;47.966;10.268;2023-06-10T01:49:38;14.30;99.90
6788;DHT22;3431;47.966;10.268;2023-06-10T01:50:02;14.30;99.90
6788;DHT22;3431;47.966;10.268;2023-06-10T01:50:25;14.30;99.90
6788;DHT22;3431;47.966;10.268;2023-06-10T01:50:47;14.30;99.90
6788;DHT22;3431;47.966;10.268;2023-06-10T01:51:09;14.30;99.90
6788;DHT22;3431;47.966;10.268;2023-06-10T01:51:31;14.30;99.90
6788;DHT22;3431;47.966;10.268;2023-06-10T01:51:54;14.20;99.90
6788;DHT22;3431;47.966;10.268;2023-06-10T01:52:17;14.20;99.90
6788;DHT22;3431;47.966;10.268;2023-06-10T01:52:38;14.30;99.90
6788;DHT22;3431;47.966;10.268;2023-06-10T01:53:00;14.20;99.90
6788;DHT22;3431;47.966;10.268;2023-06-10T01:53:22;14.20;99.90
6788;DHT22;3431;47.966;10.268;2023-06-10T01:53:44;14.20;99.90
6788;DHT22;3431;47.966;10.268;2023-06-10T01:54:06;14.20;99.90
6788;DHT22;3431;47.966;10.268;2023-06-10T01:54:28;14.20;99.90
6788;DHT22;3431;47.966;10.268;2023-06-10T01:54:49;14.20;99.90
6788;DHT22;3431;47.966;10.268;2023-06-10T01:55:11;14.20;99.90
6788;DHT22;3431;47.966;10.268;2023-06-10T01:55:35;14.20;99.90
6788;DHT22;3431;47.966;10.268;2023-06-10T01:55:58;14.20;99.90
6788;DHT22;3431;47.966;10.268;2023-06-10T01:56:19;14.20;99.90
6788;DHT22;3431;47.966;10.268;2023-06-10T01:56:41;14.20;99.90
6788;DHT22;3431;47.966;10.268;2023-06-10T01:57:04;14.20;99.90
6788;DHT22;3431;47.966;10.268;2023-06-10T01:57:27;13.70;99.90
6788;DHT22;3431;47.966;10.268;2023-06-10T01:57:49;14.20;99.90
6788;DHT22;3431;47.966;10.268;2023-06-10T01:58:11;14.20;99.90
6788;DHT22;3431;47.966;10.268;2023-06-10T01:58:32;14.20;99.90
6788;DHT22;3431;47.966;10.268;2023-06-10T01:58:54;14.20;99.90
6788;DHT22;3431;47.966;10.268;2023-06-10T01:59:20;14.20;99.90
6788;DHT22;3431;47.966;10.268;2023-06-10T01:59:42;14.20;99.90
6788;DHT22;3431;47.966;10.268;2023-06-10T02:00:06;14.20;99.90
6788;DHT22;3431;47.966;10.268;2023-06-10T02:00:36;14.20;99.90
6788;DHT22;3431;47.966;10.268;2023-06-10T02:00:59;14.20;99.90
6788;DHT22;3431;47.966;10.268;2023-06-10T02:01:20;14.20;99.90
6788;DHT22;3431;47.966;10.268;2023-06-10T02:01:42;14.20;99.90
6788;DHT22;3431;47.966;10.268;2023-06-10T02:02:05;14.20;99.90
6788;DHT22;3431;47.966;10.268;2023-06-10T02:02:27;14.20;99.90
6788;DHT22;3431;47.966;10.268;2023-06-10T02:02:49;14.20;99.90
6788;DHT22;3431;47.966;10.268;2023-06-10T02:03:12;14.20;99.90
6788;DHT22;3431;47.966;10.268;2023-06-10T02:03:33;14.10;99.90
6788;DHT22;3431;47.966;10.268;2023-06-10T02:03:55;14.20;99.90
6788;DHT22;3431;47.966;10.268;2023-06-10T02:04:17;14.20;99.90
6788;DHT22;3431;47.966;10.268;2023-06-10T02:04:39;14.20;99.90
6788;DHT22;3431;47.966;10.268;2023-06-10T02:05:01;14.10;99.90
6788;DHT22;3431;47.966;10.268;2023-06-10T02:05:23;14.10;99.90
6788;DHT22;3431;47.966;10.268;2023-06-10T02:05:44;14.10;99.90
6788;DHT22;3431;47.966;10.268;2023-06-10T02:06:07;14.10;99.90
6788;DHT22;3431;47.966;10.268;2023-06-10T02:06:28;14.10;99.90
6788;DHT22;3431;47.966;10.268;2023-06-10T02:06:50;14.10;99.90
6788;DHT22;3431;47.966;10.268;2023-06-10T02:07:14;14.20;99.90
6788;DHT22;3431;47.966;10.268;2023-06-10T02:07:36;14.10;99.90
6788;DHT22;3431;47.966;10.268;2023-06-10T02:07:59;14.10;99.90
6788;DHT22;3431;47.966;10.268;2023-06-10T02:08:20;14.10;99.90
6788;DHT22;3431;47.966;10.268;2023-06-10T02:08:42;14.10;99.90
6788;DHT22;3431;47.966;10.268;2023-06-10T02:09:03;14.10;99.90
6788;DHT22;3431;47.966;10.268;2023-06-10T02:09:26;14.10;99.90
6788;DHT22;3431;47.966;10.268;2023-06-10T02:09:47;14.10;99.90
6788;DHT22;3431;47.966;10.268;2023-06-10T02:10:09;14.10;99.90
6788;DHT22;3431;47.966;10.268;2023-06-10T02:10:31;14.10;99.90
6788;DHT22;3431;47.966;10.268;2023-06-10T02:10:52;14.10;99.90
6788;DHT22;3431;47.966;10.268;2023-06-10T02:11:15;14.10;99.90
6788;DHT22;3431;47.966;10.268;2023-06-10T02:11:37;14.10;99.90
6788;DHT22;3431;47.966;10.268;2023-06-10T02:11:58;14.10;99.90
6788;DHT22;3431;47.966;10.268;2023-06-10T02:12:20;14.10;99.90
6788;DHT22;3431;47.966;10.268;2023-06-10T02:12:42;14.10;99.90
6788;DHT22;3431;47.966;10.268;2023-06-10T02:13:04;14.10;99.90
6788;DHT22;3431;47.966;10.268;2023-06-10T02:13:26;14.10;99.90
6788;DHT22;3431;47.966;10.268;2023-06-10T02:13:49;14.10;99.90
6788;DHT22;3431;47.966;10.268;2023-06-10T02:14:11;14.10;99.90
6788;DHT22;3431;47.966;10.268;2023-06-10T02:14:33;14.10;99.90
6788;DHT22;3431;47.966;10.268;2023-06-10T02:14:54;14.10;99.90
6788;DHT22;3431;47.966;10.268;2023-06-10T02:15:16;14.10;99.90
6788;DHT22;3431;47.966;10.268;2023-06-10T02:15:38;14.00;99.90
6788;DHT22;3431;47.966;10.268;2023-06-10T02:16:00;14.00;99.90
6788;DHT22;3431;47.966;10.268;2023-06-10T02:16:24;14.00;99.90
6788;DHT22;3431;47.966;10.268;2023-06-10T02:16:46;14.00;99.90
6788;DHT22;3431;47.966;10.268;2023-06-10T02:17:08;13.90;99.90
6788;DHT22;3431;47.966;10.268;2023-06-10T02:17:33;14.00;99.90
6788;DHT22;3431;47.966;10.268;2023-06-10T02:17:55;14.00;99.90
6788;DHT22;3431;47.966;10.268;2023-06-10T02:18:17;14.00;99.90
6788;DHT22;3431;47.966;10.268;2023-06-10T02:18:46;14.00;99.90
6788;DHT22;3431;47.966;10.268;2023-06-10T02:19:08;14.00;99.90
6788;DHT22;3431;47.966;10.268;2023-06-10T02:19:30;14.00;99.90
6788;DHT22;3431;47.966;10.268;2023-06-10T02:19:52;14.00;99.90
6788;DHT22;3431;47.966;10.268;2023-06-10T02:20:16;14.00;99.90
6788;DHT22;3431;47.966;10.268;2023-06-10T02:20:37;14.00;99.90
6788;DHT22;3431;47.966;10.268;2023-06-10T02:20:59;14.00;99.90
6788;DHT22;3431;47.966;10.268;2023-06-10T02:21:21;14.00;99.90
6788;DHT22;3431;47.966;10.268;2023-06-10T02:21:44;14.00;99.90
6788;DHT22;3431;47.966;10.268;2023-06-10T02:22:05;14.00;99.90
6788;DHT22;3431;47.966;10.268;2023-06-10T02:22:28;14.00;99.90
6788;DHT22;3431;47.966;10.268;2023-06-10T02:22:50;14.00;99.90
6788;DHT22;3431;47.966;10.268;2023-06-10T02:23:13;14.00;99.90
6788;DHT22;3431;47.966;10.268;2023-06-10T02:23:34;13.90;99.90
6788;DHT22;3431;47.966;10.268;2023-06-10T02:23:59;14.00;99.90
6788;DHT22;3431;47.966;10.268;2023-06-10T02:24:20;14.00;99.90
6788;DHT22;3431;47.966;10.268;2023-06-10T02:24:42;14.00;99.90
6788;DHT22;3431;47.966;10.268;2023-06-10T02:25:05;14.00;99.90
6788;DHT22;3431;47.966;10.268;2023-06-10T02:25:27;13.90;99.90
6788;DHT22;3431;47.966;10.268;2023-06-10T02:25:48;14.00;99.90
6788;DHT22;3431;47.966;10.268;2023-06-10T02:26:10;14.00;99.90
6788;DHT22;3431;47.966;10.268;2023-06-10T02:26:32;14.00;99.90
6788;DHT22;3431;47.966;10.268;2023-06-10T02:26:55;14.00;99.90
6788;DHT22;3431;47.966;10.268;2023-06-10T02:27:19;14.00;99.90
6788;DHT22;3431;47.966;10.268;2023-06-10T02:27:41;14.00;99.90
6788;DHT22;3431;47.966;10.268;2023-06-10T02:28:02;14.00;99.90
6788;DHT22;3431;47.966;10.268;2023-06-10T02:28:24;14.00;99.90